Time;durP1;ratioP1;P1;durP2;ratioP2;P2;SDS_P1;SDS_P2;PMS_P1;PMS_P2;Temp;Humidity;BMP_temperature;BMP_pressure;BME280_temperature;BME280_humidity;BME280_pressure;Samples;Min_cycle;Max_cycle;Signal;HPM_P1;HPM_P2
2022/01/14 00:02:08;;;;;;;172.65;21.65;;;;;;;;;;4914182;29;20055;-75
2022/01/14 00:04:35;;;;;;;72.75;21.33;;;;;;;;;;4914309;29;20052;-75
2022/01/14 00:07:02;;;;;;;98.05;22.40;;;;;;;;;;4898868;29;20065;-76
2022/01/14 00:09:30;;;;;;;229.13;26.50;;;;;;;;;;4893750;29;20784;-76
2022/01/14 00:11:58;;;;;;;74.18;19.15;;;;;;;;;;4892608;29;20059;-76
2022/01/14 00:14:44;;;;;;;99.20;21.70;;;;;;;;;;4892931;29;20551;-76
2022/01/14 00:17:15;;;;;;;55.47;19.77;;;;;;;;;;4894038;29;20056;-76
2022/01/14 00:19:42;;;;;;;53.72;20.15;;;;;;;;;;4895191;29;20640;-76
2022/01/14 00:22:15;;;;;;;146.60;21.73;;;;;;;;;;4894921;29;20498;-76
2022/01/14 00:33:07;;;;;;;152.38;21.58;;;;;;;;;;4895401;29;20036;-76
2022/01/14 00:35:40;;;;;;;143.88;20.92;;;;;;;;;;4894451;29;20045;-76
2022/01/14 00:38:07;;;;;;;131.18;19.88;;;;;;;;;;4901713;23;20060;-75
2022/01/14 00:40:34;;;;;;;108.35;19.00;;;;;;;;;;4864985;29;20074;-76
2022/01/14 00:43:00;;;;;;;77.72;20.13;;;;;;;;;;4856420;29;20396;-76
2022/01/14 00:45:26;;;;;;;167.23;20.95;;;;;;;;;;4857666;29;20483;-76
2022/01/14 00:47:55;;;;;;;154.75;22.63;;;;;;;;;;4856497;29;20547;-76
2022/01/14 00:50:21;;;;;;;86.30;19.80;;;;;;;;;;4854870;29;20041;-76
2022/01/14 00:52:49;;;;;;;134.65;20.88;;;;;;;;;;4858089;29;20045;-76
2022/01/14 00:55:18;;;;;;;237.82;23.10;;;;;;;;;;4857569;29;20495;-76
2022/01/14 01:00:23;;;;;;;279.02;24.35;;;;;;;;;;4856541;29;20041;-76
2022/01/14 01:02:49;;;;;;;174.55;19.60;;;;;;;;;;4856214;29;20748;-75
2022/01/14 01:05:16;;;;;;;79.32;18.33;;;;;;;;;;4856630;29;20502;-76
2022/01/14 01:07:45;;;;;;;152.48;19.45;;;;;;;;;;4876314;29;20384;-75
2022/01/14 01:10:12;;;;;;;238.10;23.70;;;;;;;;;;4875892;29;20525;-76
2022/01/14 01:12:51;;;;;;;157.57;23.13;;;;;;;;;;4875415;29;20475;-76
2022/01/14 01:15:17;;;;;;;185.45;20.85;;;;;;;;;;4875063;29;20052;-76
2022/01/14 01:17:45;;;;;;;189.63;19.73;;;;;;;;;;4875535;29;20495;-76
2022/01/14 01:20:18;;;;;;;133.30;19.90;;;;;;;;;;4875536;29;20051;-75
2022/01/14 01:22:49;;;;;;;219.15;23.00;;;;;;;;;;4875938;29;20043;-75
2022/01/14 01:25:19;;;;;;;154.98;20.65;;;;;;;;;;4875204;29;20045;-75
2022/01/14 01:27:49;;;;;;;221.40;23.00;;;;;;;;;;4874865;29;20056;-75
2022/01/14 01:30:27;;;;;;;133.82;18.40;;;;;;;;;;4875290;29;20048;-75
2022/01/14 01:32:53;;;;;;;164.30;23.08;;;;;;;;;;4875259;29;20048;-75
2022/01/14 01:35:20;;;;;;;156.40;22.65;;;;;;;;;;4875126;29;20412;-75
2022/01/14 01:37:46;;;;;;;123.20;19.92;;;;;;;;;;4875573;29;20041;-75
2022/01/14 01:40:14;;;;;;;160.48;22.13;;;;;;;;;;4875501;29;20068;-75
2022/01/14 01:42:43;;;;;;;182.27;22.05;;;;;;;;;;4875105;29;20055;-75
2022/01/14 01:45:12;;;;;;;194.07;23.63;;;;;;;;;;4875660;29;20033;-75
2022/01/14 01:47:39;;;;;;;269.25;26.55;;;;;;;;;;4875681;29;20052;-75
2022/01/14 01:50:10;;;;;;;103.63;18.75;;;;;;;;;;4858763;29;20045;-75
2022/01/14 01:52:37;;;;;;;108.60;18.42;;;;;;;;;;4832137;29;20049;-75
2022/01/14 01:55:04;;;;;;;151.90;22.65;;;;;;;;;;4838255;29;20041;-75
2022/01/14 01:57:30;;;;;;;141.68;19.30;;;;;;;;;;4838205;29;20051;-75
2022/01/14 01:59:58;;;;;;;166.70;21.25;;;;;;;;;;4838650;29;20042;-75
2022/01/14 02:02:25;;;;;;;115.97;19.00;;;;;;;;;;4837749;29;20056;-75
2022/01/14 02:04:51;;;;;;;228.73;23.80;;;;;;;;;;4838294;29;20030;-75
2022/01/14 02:07:17;;;;;;;144.35;20.17;;;;;;;;;;4853921;29;20033;-75
2022/01/14 02:09:43;;;;;;;84.75;18.70;;;;;;;;;;4857799;29;20056;-75
2022/01/14 02:12:11;;;;;;;161.13;20.05;;;;;;;;;;4874918;29;20049;-75
2022/01/14 02:14:54;;;;;;;125.55;19.13;;;;;;;;;;4874915;29;20033;-75
2022/01/14 02:17:45;;;;;;;97.60;18.65;;;;;;;;;;4873754;29;20049;-75
2022/01/14 02:23:01;;;;;;;89.25;20.10;;;;;;;;;;4874652;29;19923;-75
2022/01/14 02:25:33;;;;;;;92.30;22.17;;;;;;;;;;4873864;29;20045;-75
2022/01/14 02:27:59;;;;;;;120.40;22.38;;;;;;;;;;4874500;29;20037;-75
2022/01/14 02:30:29;;;;;;;160.43;22.30;;;;;;;;;;4874514;29;20044;-75
2022/01/14 02:32:55;;;;;;;202.38;22.05;;;;;;;;;;4874350;29;20041;-75
2022/01/14 02:35:21;;;;;;;144.15;20.67;;;;;;;;;;4873648;29;20047;-75
2022/01/14 02:37:47;;;;;;;112.35;21.63;;;;;;;;;;4873935;29;20483;-75
2022/01/14 02:40:14;;;;;;;125.88;19.45;;;;;;;;;;4892346;29;20128;-75
2022/01/14 02:42:39;;;;;;;142.20;21.63;;;;;;;;;;4870403;29;20448;-75
2022/01/14 02:45:10;;;;;;;130.48;20.95;;;;;;;;;;4855729;29;20069;-75
2022/01/14 02:47:36;;;;;;;149.53;21.97;;;;;;;;;;4855499;29;20053;-75
2022/01/14 02:50:03;;;;;;;152.60;21.00;;;;;;;;;;4855371;29;20137;-75
2022/01/14 02:55:18;;;;;;;88.10;21.67;;;;;;;;;;4861150;29;20099;-75
2022/01/14 02:57:52;;;;;;;66.60;18.77;;;;;;;;;;4855646;29;20638;-75
2022/01/14 03:00:20;;;;;;;56.90;18.80;;;;;;;;;;4855192;29;20472;-75
2022/01/14 03:02:49;;;;;;;135.32;21.00;;;;;;;;;;4855292;29;20076;-75
2022/01/14 03:05:16;;;;;;;147.32;21.63;;;;;;;;;;4857631;29;20038;-74
2022/01/14 03:07:42;;;;;;;90.55;18.92;;;;;;;;;;4892772;29;20024;-74
2022/01/14 03:10:11;;;;;;;74.05;20.58;;;;;;;;;;4892653;29;20025;-77
2022/01/14 03:12:38;;;;;;;72.32;19.20;;;;;;;;;;4892730;29;20041;-76
2022/01/14 03:15:05;;;;;;;95.75;18.80;;;;;;;;;;4896107;29;20024;-74
2022/01/14 03:17:31;;;;;;;83.95;20.17;;;;;;;;;;4878939;29;20051;-74
2022/01/14 03:19:59;;;;;;;125.68;20.80;;;;;;;;;;4896266;29;20028;-74
2022/01/14 03:22:30;;;;;;;76.20;18.20;;;;;;;;;;4895606;29;20064;-74
2022/01/14 03:27:23;;;;;;;141.93;27.98;;;;;;;;;;4896096;29;20091;-76
2022/01/14 03:29:50;;;;;;;116.65;22.70;;;;;;;;;;4895638;29;20048;-75
2022/01/14 03:32:16;;;;;;;178.82;28.15;;;;;;;;;;4895657;29;20068;-76
2022/01/14 03:34:42;;;;;;;114.15;27.95;;;;;;;;;;4895264;29;20048;-74
2022/01/14 03:37:08;;;;;;;172.80;33.55;;;;;;;;;;4895529;29;20056;-75
2022/01/14 03:39:34;;;;;;;130.65;32.28;;;;;;;;;;4895181;29;20056;-76
2022/01/14 03:42:00;;;;;;;110.30;26.35;;;;;;;;;;4895766;29;20055;-75
2022/01/14 03:44:26;;;;;;;126.45;22.52;;;;;;;;;;4895535;29;20508;-74
2022/01/14 03:46:52;;;;;;;139.13;28.95;;;;;;;;;;4896127;29;20055;-75
2022/01/14 03:49:21;;;;;;;131.18;22.08;;;;;;;;;;4879185;29;20068;-74
2022/01/14 03:51:50;;;;;;;81.68;21.92;;;;;;;;;;4858488;29;20049;-75
2022/01/14 03:54:15;;;;;;;103.22;17.02;;;;;;;;;;4842007;29;20498;-76
2022/01/14 03:56:41;;;;;;;91.68;18.35;;;;;;;;;;4858423;29;20050;-74
2022/01/14 03:59:07;;;;;;;105.05;17.10;;;;;;;;;;4858470;29;20542;-74
2022/01/14 04:01:33;;;;;;;78.25;15.82;;;;;;;;;;4858388;29;20051;-75
2022/01/14 04:04:00;;;;;;;103.43;17.30;;;;;;;;;;4858120;29;20050;-75
2022/01/14 04:06:27;;;;;;;237.77;28.80;;;;;;;;;;4877709;29;20036;-76
2022/01/14 04:08:54;;;;;;;157.30;32.55;;;;;;;;;;4895591;29;20086;-76
2022/01/14 04:11:20;;;;;;;124.63;26.30;;;;;;;;;;4894315;29;20045;-75
2022/01/14 04:13:52;;;;;;;92.55;24.83;;;;;;;;;;4895480;29;20041;-75
2022/01/14 04:16:20;;;;;;;129.98;25.35;;;;;;;;;;4894878;29;20426;-75
2022/01/14 04:18:48;;;;;;;56.30;18.13;;;;;;;;;;4894715;29;20072;-74
2022/01/14 04:21:15;;;;;;;52.58;15.93;;;;;;;;;;4894642;29;20059;-75
2022/01/14 04:23:41;;;;;;;79.88;16.98;;;;;;;;;;4894495;29;20044;-75
2022/01/14 04:26:07;;;;;;;71.13;21.88;;;;;;;;;;4894132;29;20053;-76
2022/01/14 04:28:36;;;;;;;61.67;17.40;;;;;;;;;;4894748;29;20040;-75
2022/01/14 04:31:04;;;;;;;46.45;18.65;;;;;;;;;;4894236;29;20051;-75
2022/01/14 04:33:32;;;;;;;40.60;15.13;;;;;;;;;;4894296;29;20399;-75
2022/01/14 04:35:59;;;;;;;50.42;17.58;;;;;;;;;;4894535;29;20043;-74
2022/01/14 04:38:27;;;;;;;116.57;21.13;;;;;;;;;;4893503;29;20048;-74
2022/01/14 04:40:53;;;;;;;124.15;22.15;;;;;;;;;;4893440;29;20039;-74
2022/01/14 04:43:20;;;;;;;53.10;19.00;;;;;;;;;;4864330;29;20050;-74
2022/01/14 04:48:26;;;;;;;83.70;17.05;;;;;;;;;;4861523;29;20050;-76
2022/01/14 04:50:54;;;;;;;111.53;23.20;;;;;;;;;;4856097;29;20053;-77
2022/01/14 04:53:21;;;;;;;100.75;17.75;;;;;;;;;;4856831;29;20042;-75
2022/01/14 04:55:48;;;;;;;77.55;16.30;;;;;;;;;;4856592;29;20410;-75
2022/01/14 04:58:14;;;;;;;82.18;25.02;;;;;;;;;;4856879;29;20041;-76
2022/01/14 05:00:40;;;;;;;69.35;26.65;;;;;;;;;;4841720;29;20491;-75
2022/01/14 05:03:07;;;;;;;107.05;40.38;;;;;;;;;;4871200;29;20056;-75
2022/01/14 05:05:36;;;;;;;112.22;36.05;;;;;;;;;;4836157;29;20575;-75
2022/01/14 05:08:08;;;;;;;96.32;45.42;;;;;;;;;;4857121;29;20049;-75
2022/01/14 05:10:49;;;;;;;45.55;19.20;;;;;;;;;;4861827;29;20020;-75
2022/01/14 05:14:02;;;;;;;26.80;12.40;;;;;;;;;;5095513;27;20712;-76
2022/01/14 05:16:29;;;;;;;25.60;11.38;;;;;;;;;;5083669;28;20075;-74
2022/01/14 05:18:55;;;;;;;30.20;12.20;;;;;;;;;;5085877;28;20032;-74
2022/01/14 05:21:21;;;;;;;49.20;13.45;;;;;;;;;;5086035;28;20039;-74
2022/01/14 05:23:46;;;;;;;33.63;11.25;;;;;;;;;;5085796;28;20044;-74
2022/01/14 05:26:12;;;;;;;34.55;10.85;;;;;;;;;;5086364;28;20562;-75
2022/01/14 05:28:38;;;;;;;23.88;9.82;;;;;;;;;;5085868;28;20044;-75
2022/01/14 05:31:04;;;;;;;33.50;11.23;;;;;;;;;;5078168;28;20051;-75
2022/01/14 05:33:32;;;;;;;36.15;12.55;;;;;;;;;;5064013;28;20036;-75
2022/01/14 05:35:58;;;;;;;39.42;12.45;;;;;;;;;;5063636;28;20795;-77
2022/01/14 05:38:23;;;;;;;38.00;12.18;;;;;;;;;;5063555;28;20060;-76
2022/01/14 05:40:49;;;;;;;49.63;10.27;;;;;;;;;;5063796;28;20060;-77
2022/01/14 05:43:18;;;;;;;20.85;9.15;;;;;;;;;;5062167;28;20128;-74
2022/01/14 05:45:46;;;;;;;23.48;9.48;;;;;;;;;;5064539;28;20044;-75
2022/01/14 05:48:12;;;;;;;47.63;9.98;;;;;;;;;;5063030;28;20056;-78
2022/01/14 05:50:38;;;;;;;21.40;8.65;;;;;;;;;;5084829;28;20135;-77
2022/01/14 05:53:06;;;;;;;20.20;8.07;;;;;;;;;;5054621;28;20076;-80
2022/01/14 05:55:32;;;;;;;19.60;8.48;;;;;;;;;;5043765;28;20045;-77
2022/01/14 05:57:58;;;;;;;17.20;8.75;;;;;;;;;;5054166;28;20109;-76
2022/01/14 06:00:24;;;;;;;24.02;8.48;;;;;;;;;;5084693;28;20040;-76
2022/01/14 06:02:51;;;;;;;22.55;9.63;;;;;;;;;;5084410;28;20140;-77
2022/01/14 06:05:19;;;;;;;21.13;10.00;;;;;;;;;;5083839;28;20032;-77
2022/01/14 06:07:48;;;;;;;15.25;7.88;;;;;;;;;;5065248;28;20041;-76
2022/01/14 06:10:14;;;;;;;19.30;10.70;;;;;;;;;;5065819;28;20052;-77
2022/01/14 06:12:40;;;;;;;24.08;12.48;;;;;;;;;;5065277;28;20051;-77
2022/01/14 06:15:07;;;;;;;60.05;31.50;;;;;;;;;;5063431;28;20397;-77
2022/01/14 06:17:33;;;;;;;20.63;10.38;;;;;;;;;;5065386;28;20032;-76
2022/01/14 06:19:59;;;;;;;50.03;22.13;;;;;;;;;;5061554;28;20053;-78
2022/01/14 06:22:25;;;;;;;65.28;25.80;;;;;;;;;;5057591;28;20037;-78
2022/01/14 06:24:50;;;;;;;55.38;15.90;;;;;;;;;;5053003;28;20040;-78
2022/01/14 06:27:17;;;;;;;36.63;13.20;;;;;;;;;;5051066;28;20049;-78
2022/01/14 06:29:43;;;;;;;43.30;19.98;;;;;;;;;;5046496;28;20204;-76
2022/01/14 06:32:09;;;;;;;41.70;19.80;;;;;;;;;;5045422;28;20037;-78
2022/01/14 06:34:35;;;;;;;21.23;9.88;;;;;;;;;;5047532;28;20092;-77
2022/01/14 06:37:00;;;;;;;29.30;9.32;;;;;;;;;;5044904;28;20064;-78
2022/01/14 06:39:26;;;;;;;29.90;10.07;;;;;;;;;;5034791;28;20033;-77
2022/01/14 06:41:54;;;;;;;38.40;9.90;;;;;;;;;;5041658;28;20033;-77
2022/01/14 06:44:19;;;;;;;118.03;14.88;;;;;;;;;;5041859;28;20418;-77
2022/01/14 06:46:45;;;;;;;73.95;16.42;;;;;;;;;;5050664;28;20025;-77
2022/01/14 06:49:11;;;;;;;108.65;13.30;;;;;;;;;;5048930;28;20041;-78
2022/01/14 06:51:37;;;;;;;86.70;13.57;;;;;;;;;;5050814;28;20025;-78
2022/01/14 06:54:03;;;;;;;124.85;14.52;;;;;;;;;;5049280;28;20223;-77
2022/01/14 06:56:29;;;;;;;148.70;13.50;;;;;;;;;;5052361;28;20048;-77
2022/01/14 06:58:55;;;;;;;116.90;12.60;;;;;;;;;;5050510;28;20128;-77
2022/01/14 07:01:21;;;;;;;42.92;10.18;;;;;;;;;;5050758;28;20530;-76
2022/01/14 07:03:47;;;;;;;116.50;15.43;;;;;;;;;;5050934;28;20107;-77
2022/01/14 07:06:13;;;;;;;78.10;12.30;;;;;;;;;;5050681;28;20025;-77
2022/01/14 07:08:39;;;;;;;84.22;12.20;;;;;;;;;;5042813;28;20037;-77
2022/01/14 07:11:05;;;;;;;94.50;12.25;;;;;;;;;;5035297;28;20059;-76
2022/01/14 07:13:31;;;;;;;108.00;13.18;;;;;;;;;;5028739;28;20107;-77
2022/01/14 07:15:56;;;;;;;31.00;11.25;;;;;;;;;;5029988;28;20040;-77
2022/01/14 07:18:22;;;;;;;31.10;10.75;;;;;;;;;;5028513;28;20120;-77
2022/01/14 07:20:48;;;;;;;57.30;10.63;;;;;;;;;;5030312;28;20117;-76
2022/01/14 07:23:14;;;;;;;95.93;11.93;;;;;;;;;;5030320;28;20041;-76
2022/01/14 07:25:40;;;;;;;78.07;11.48;;;;;;;;;;5036403;28;20399;-78
2022/01/14 07:28:06;;;;;;;46.00;10.93;;;;;;;;;;5049061;28;20064;-77
2022/01/14 07:30:35;;;;;;;126.65;13.52;;;;;;;;;;5049671;28;20406;-78
2022/01/14 07:33:01;;;;;;;72.85;11.45;;;;;;;;;;5049230;28;20067;-79
2022/01/14 07:35:27;;;;;;;102.30;12.75;;;;;;;;;;5046862;28;20558;-78
2022/01/14 07:42:08;;;;;;;79.55;10.40;;;;;;;;;;5165041;22;20056;-78
2022/01/14 07:53:14;;;;;;;65.53;10.48;;;;;;;;;;4997765;23;20287;-74
2022/01/14 07:55:43;;;;;;;45.40;10.15;;;;;;;;;;4923887;29;20058;-75
2022/01/14 07:58:08;;;;;;;55.53;9.80;;;;;;;;;;4911166;29;20039;-75
2022/01/14 08:00:39;;;;;;;46.60;9.07;;;;;;;;;;4932852;29;20043;-74
2022/01/14 08:03:05;;;;;;;31.67;9.93;;;;;;;;;;4933694;29;20050;-75
2022/01/14 08:05:31;;;;;;;44.00;9.00;;;;;;;;;;4933820;29;20075;-76
2022/01/14 08:08:03;;;;;;;29.20;8.63;;;;;;;;;;4938738;29;20047;-76
2022/01/14 08:10:29;;;;;;;40.05;8.90;;;;;;;;;;4953140;29;20422;-74
2022/01/14 08:12:55;;;;;;;27.17;9.32;;;;;;;;;;4942206;29;20054;-74
2022/01/14 08:15:21;;;;;;;26.95;9.18;;;;;;;;;;4919254;29;20055;-74
2022/01/14 08:17:47;;;;;;;27.83;8.50;;;;;;;;;;4914259;29;20048;-74
2022/01/14 08:20:13;;;;;;;33.35;8.88;;;;;;;;;;4927406;29;20513;-74
2022/01/14 08:22:38;;;;;;;44.13;8.88;;;;;;;;;;4918530;29;20103;-74
2022/01/14 08:25:05;;;;;;;41.17;8.63;;;;;;;;;;4933926;29;20078;-75
2022/01/14 08:27:31;;;;;;;35.53;8.05;;;;;;;;;;4933150;29;20043;-75
2022/01/14 08:29:57;;;;;;;38.88;8.93;;;;;;;;;;4920405;29;20048;-76
2022/01/14 08:32:23;;;;;;;23.83;8.13;;;;;;;;;;4907478;29;20394;-76
2022/01/14 08:34:50;;;;;;;26.90;8.63;;;;;;;;;;4909763;29;20047;-76
2022/01/14 08:37:16;;;;;;;20.70;8.82;;;;;;;;;;4925690;29;20399;-75
2022/01/14 08:39:42;;;;;;;19.52;8.32;;;;;;;;;;4932244;29;20583;-75
2022/01/14 08:42:12;;;;;;;18.45;7.53;;;;;;;;;;4932515;29;20050;-77
2022/01/14 08:44:38;;;;;;;18.75;7.80;;;;;;;;;;4928144;29;20044;-77
2022/01/14 08:47:09;;;;;;;14.52;5.97;;;;;;;;;;4932545;29;20200;-77
2022/01/14 08:49:43;;;;;;;16.50;6.88;;;;;;;;;;4914901;29;20039;-77
2022/01/14 08:52:10;;;;;;;12.02;5.68;;;;;;;;;;4930241;29;20054;-77
2022/01/14 08:54:36;;;;;;;15.63;6.35;;;;;;;;;;4939092;29;20509;-77
2022/01/14 08:57:02;;;;;;;13.48;6.15;;;;;;;;;;4940027;29;20047;-75
2022/01/14 08:59:29;;;;;;;9.88;5.40;;;;;;;;;;4934949;29;20044;-75
2022/01/14 09:01:55;;;;;;;11.95;5.43;;;;;;;;;;4944091;29;20046;-75
2022/01/14 09:04:22;;;;;;;15.23;7.85;;;;;;;;;;4935674;29;20036;-75
2022/01/14 09:06:48;;;;;;;10.73;6.10;;;;;;;;;;4917614;29;20095;-75
2022/01/14 09:09:15;;;;;;;12.15;6.20;;;;;;;;;;4945417;29;20039;-76
2022/01/14 09:11:41;;;;;;;17.45;6.10;;;;;;;;;;4940648;29;20040;-76
2022/01/14 09:14:07;;;;;;;11.80;5.80;;;;;;;;;;4946163;29;20382;-75
2022/01/14 09:16:33;;;;;;;13.45;6.95;;;;;;;;;;4918222;29;20135;-76
2022/01/14 09:18:59;;;;;;;16.13;7.25;;;;;;;;;;4928941;29;20039;-75
2022/01/14 09:21:26;;;;;;;14.55;7.15;;;;;;;;;;4929548;28;20040;-77
2022/01/14 09:23:57;;;;;;;15.93;7.68;;;;;;;;;;4934641;29;20062;-75
2022/01/14 09:26:23;;;;;;;15.88;7.78;;;;;;;;;;4930515;29;20036;-76
2022/01/14 09:28:49;;;;;;;11.32;6.10;;;;;;;;;;4925409;29;20087;-76
2022/01/14 09:31:16;;;;;;;27.05;7.50;;;;;;;;;;4929250;29;20047;-76
2022/01/14 09:33:42;;;;;;;13.63;6.40;;;;;;;;;;4935885;29;20036;-75
2022/01/14 09:36:08;;;;;;;17.98;7.15;;;;;;;;;;4930691;29;20046;-79
2022/01/14 09:38:34;;;;;;;14.30;7.38;;;;;;;;;;4937710;29;20035;-76
2022/01/14 09:41:00;;;;;;;13.70;7.25;;;;;;;;;;4927341;29;20139;-76
2022/01/14 09:43:26;;;;;;;18.02;7.88;;;;;;;;;;4935170;29;20043;-75
2022/01/14 09:45:53;;;;;;;15.13;7.57;;;;;;;;;;4912159;29;20082;-75
2022/01/14 09:48:20;;;;;;;18.45;8.30;;;;;;;;;;4924839;29;20043;-76
2022/01/14 09:50:46;;;;;;;24.73;9.98;;;;;;;;;;4915931;29;20499;-76
2022/01/14 09:53:16;;;;;;;19.50;8.75;;;;;;;;;;4930061;29;20086;-74
2022/01/14 09:55:43;;;;;;;30.25;7.75;;;;;;;;;;4930527;29;20047;-75
2022/01/14 09:58:09;;;;;;;19.63;7.78;;;;;;;;;;4930759;29;20028;-74
2022/01/14 10:00:37;;;;;;;23.45;9.73;;;;;;;;;;4933556;29;20036;-76
2022/01/14 10:03:22;;;;;;;22.60;8.32;;;;;;;;;;4939948;29;20047;-76
2022/01/14 10:05:51;;;;;;;27.50;8.85;;;;;;;;;;4914543;29;20215;-76
2022/01/14 10:08:23;;;;;;;25.40;8.35;;;;;;;;;;4931891;29;20036;-76
2022/01/14 10:10:58;;;;;;;21.92;8.38;;;;;;;;;;4939477;29;20047;-76
2022/01/14 10:13:34;;;;;;;16.83;7.78;;;;;;;;;;4942328;29;20398;-76
2022/01/14 10:16:06;;;;;;;16.58;7.90;;;;;;;;;;4936790;29;20066;-76
2022/01/14 10:18:34;;;;;;;17.48;8.27;;;;;;;;;;4906172;29;20044;-76
2022/01/14 10:21:01;;;;;;;17.15;7.68;;;;;;;;;;4928494;29;20054;-77
2022/01/14 10:23:42;;;;;;;14.18;7.32;;;;;;;;;;4919126;29;20591;-76
2022/01/14 10:26:08;;;;;;;14.60;7.67;;;;;;;;;;4932030;29;20039;-76
2022/01/14 10:28:33;;;;;;;22.98;7.43;;;;;;;;;;4934734;29;20095;-74
2022/01/14 10:31:02;;;;;;;27.20;8.32;;;;;;;;;;4930445;29;20083;-76
2022/01/14 10:33:29;;;;;;;14.90;7.65;;;;;;;;;;4913904;29;20165;-76
2022/01/14 10:35:55;;;;;;;14.85;8.38;;;;;;;;;;4931154;29;20135;-76
2022/01/14 10:38:24;;;;;;;16.75;8.00;;;;;;;;;;4928031;29;20046;-76
2022/01/14 10:40:58;;;;;;;15.60;7.78;;;;;;;;;;4925149;29;20039;-75
2022/01/14 10:43:32;;;;;;;20.65;7.60;;;;;;;;;;4931357;29;20429;-74
2022/01/14 10:46:06;;;;;;;13.23;7.55;;;;;;;;;;4932882;29;20047;-75
2022/01/14 10:48:37;;;;;;;15.38;7.82;;;;;;;;;;4933590;29;20028;-75
2022/01/14 10:51:06;;;;;;;20.05;8.75;;;;;;;;;;4923966;29;20048;-75
2022/01/14 10:53:35;;;;;;;15.25;7.68;;;;;;;;;;4928513;29;20043;-79
2022/01/14 10:56:10;;;;;;;15.35;8.30;;;;;;;;;;4931953;29;20039;-76
2022/01/14 10:58:44;;;;;;;18.63;7.97;;;;;;;;;;4938747;29;20039;-76
2022/01/14 11:01:17;;;;;;;16.40;8.07;;;;;;;;;;4942800;29;20047;-78
2022/01/14 11:03:52;;;;;;;17.10;7.85;;;;;;;;;;4934173;29;20432;-75
2022/01/14 11:06:26;;;;;;;14.52;7.82;;;;;;;;;;4947985;29;20434;-76
2022/01/14 11:09:01;;;;;;;27.80;14.52;;;;;;;;;;4946850;29;20521;-75
2022/01/14 11:11:29;;;;;;;17.52;9.35;;;;;;;;;;4934236;29;20051;-75
2022/01/14 11:13:55;;;;;;;19.45;10.13;;;;;;;;;;4929424;29;20048;-77
2022/01/14 11:16:21;;;;;;;18.15;9.75;;;;;;;;;;4918335;29;20020;-77
2022/01/14 11:18:48;;;;;;;24.75;11.23;;;;;;;;;;4932431;29;20027;-77
2022/01/14 11:24:02;;;;;;;38.58;17.38;;;;;;;;;;4926342;29;20039;-75
2022/01/14 11:26:32;;;;;;;23.33;11.80;;;;;;;;;;4943136;29;20032;-76
2022/01/14 11:29:05;;;;;;;23.23;11.20;;;;;;;;;;4934157;29;20062;-74
2022/01/14 11:31:37;;;;;;;22.73;11.40;;;;;;;;;;4937649;29;20034;-75
2022/01/14 11:34:06;;;;;;;27.70;12.52;;;;;;;;;;4932025;29;20129;-75
2022/01/14 11:36:58;;;;;;;25.90;13.80;;;;;;;;;;4921105;29;20047;-75
2022/01/14 11:39:28;;;;;;;23.13;12.02;;;;;;;;;;4932805;29;20042;-76
2022/01/14 11:41:53;;;;;;;23.02;12.40;;;;;;;;;;4931989;29;20418;-74
2022/01/14 11:44:45;;;;;;;24.95;12.27;;;;;;;;;;4930819;29;20050;-74
2022/01/14 11:47:36;;;;;;;;;;;;;;;;;;4931255;29;20058;-75
2022/01/14 11:50:05;;;;;;;19.55;9.63;;;;;;;;;;4928662;29;19930;-75
2022/01/14 11:52:34;;;;;;;22.70;12.07;;;;;;;;;;4912207;29;20560;-75
2022/01/14 11:55:01;;;;;;;34.70;15.63;;;;;;;;;;4898734;29;20043;-75
2022/01/14 11:57:48;;;;;;;25.67;13.23;;;;;;;;;;4928102;29;20496;-74
2022/01/14 12:03:25;;;;;;;26.00;12.80;;;;;;;;;;4927930;29;20052;-75
2022/01/14 12:06:08;;;;;;;24.80;12.45;;;;;;;;;;4928595;29;20055;-77
2022/01/14 12:08:35;;;;;;;26.17;13.00;;;;;;;;;;4932112;29;20035;-74
2022/01/14 12:11:07;;;;;;;26.92;12.88;;;;;;;;;;4929808;29;20051;-76
2022/01/14 12:13:50;;;;;;;25.90;13.27;;;;;;;;;;4930717;29;20040;-76
2022/01/14 12:18:57;;;;;;;30.60;13.93;;;;;;;;;;4932371;29;20047;-76
2022/01/14 12:21:41;;;;;;;25.98;13.98;;;;;;;;;;4931724;29;20042;-75
2022/01/14 12:24:18;;;;;;;27.67;13.38;;;;;;;;;;4931651;29;20032;-75
2022/01/14 12:26:57;;;;;;;31.85;14.98;;;;;;;;;;4913526;29;20489;-74
2022/01/14 12:29:38;;;;;;;28.13;14.70;;;;;;;;;;4930820;29;20051;-76
2022/01/14 12:32:14;;;;;;;29.17;14.35;;;;;;;;;;4929532;29;20047;-74
2022/01/14 12:34:55;;;;;;;28.83;14.02;;;;;;;;;;4930456;29;20637;-74
2022/01/14 12:37:35;;;;;;;26.85;13.85;;;;;;;;;;4928990;29;20043;-75
2022/01/14 12:40:28;;;;;;;29.55;13.50;;;;;;;;;;4931577;29;20039;-75
2022/01/14 12:42:56;;;;;;;29.77;13.82;;;;;;;;;;4921712;29;20059;-74
2022/01/14 12:45:32;;;;;;;28.50;14.38;;;;;;;;;;4929986;29;20473;-74
2022/01/14 12:48:13;;;;;;;23.05;12.50;;;;;;;;;;4912346;29;20417;-75
2022/01/14 12:50:39;;;;;;;23.75;12.45;;;;;;;;;;4930617;29;20023;-77
2022/01/14 12:53:05;;;;;;;28.20;13.25;;;;;;;;;;4929497;29;20051;-75
2022/01/14 12:55:37;;;;;;;23.10;11.35;;;;;;;;;;4930423;29;20039;-74
2022/01/14 12:58:06;;;;;;;26.27;12.65;;;;;;;;;;4929963;29;20502;-74
2022/01/14 13:00:32;;;;;;;28.63;12.93;;;;;;;;;;4929847;29;20398;-76
2022/01/14 13:03:00;;;;;;;31.65;13.85;;;;;;;;;;4930638;29;20027;-76
2022/01/14 13:05:26;;;;;;;25.95;12.82;;;;;;;;;;4904453;29;20040;-76
2022/01/14 13:20:51;;;;;;;21.20;11.43;;;;;;;;;;4668893;23;20059;-76
2022/01/14 13:23:20;;;;;;;23.63;12.40;;;;;;;;;;4945317;29;20062;-74
2022/01/14 13:25:46;;;;;;;26.10;13.40;;;;;;;;;;4940731;29;20047;-75
2022/01/14 13:28:12;;;;;;;27.73;12.75;;;;;;;;;;4941824;29;20142;-81
2022/01/14 13:30:41;;;;;;;22.70;12.65;;;;;;;;;;4936331;29;20055;-78
2022/01/14 13:33:10;;;;;;;24.20;12.88;;;;;;;;;;4929724;29;20044;-78
2022/01/14 13:35:38;;;;;;;26.60;12.73;;;;;;;;;;4934044;29;20059;-80
2022/01/14 13:38:09;;;;;;;34.80;13.45;;;;;;;;;;4935033;29;20048;-78
2022/01/14 13:40:41;;;;;;;23.60;13.43;;;;;;;;;;4934582;29;20039;-77
2022/01/14 13:43:22;;;;;;;24.23;12.88;;;;;;;;;;4935055;29;20028;-77
2022/01/14 13:45:52;;;;;;;;;;;;;;;;;;4918028;29;20059;-76
2022/01/14 13:48:25;;;;;;;25.52;12.82;;;;;;;;;;4934329;29;19919;-79
2022/01/14 13:51:11;;;;;;;26.10;13.60;;;;;;;;;;4932980;29;20477;-78
2022/01/14 13:53:42;;;;;;;33.97;16.75;;;;;;;;;;4933394;29;20037;-78
2022/01/14 13:56:13;;;;;;;;;;;;;;;;;;4934214;29;20046;-78
2022/01/14 13:58:41;;;;;;;29.70;13.98;;;;;;;;;;4933689;29;19925;-78
2022/01/14 14:01:09;;;;;;;28.27;14.57;;;;;;;;;;4934706;29;20374;-78
2022/01/14 14:03:59;;;;;;;28.23;14.05;;;;;;;;;;4934041;29;20050;-77
2022/01/14 14:06:33;;;;;;;28.55;14.63;;;;;;;;;;4936306;28;20711;-77
2022/01/14 14:09:08;;;;;;;27.95;13.38;;;;;;;;;;4957437;28;20047;-78
2022/01/14 14:17:02;;;;;;;30.38;14.38;;;;;;;;;;4955411;29;20032;-77
2022/01/14 14:19:29;;;;;;;38.53;16.55;;;;;;;;;;4952517;28;20524;-77
2022/01/14 14:22:09;;;;;;;64.60;18.25;;;;;;;;;;4952071;29;20069;-77
2022/01/14 14:24:35;;;;;;;39.50;17.08;;;;;;;;;;4953252;29;20031;-77
2022/01/14 14:27:15;;;;;;;36.58;17.00;;;;;;;;;;4935562;29;20382;-77
2022/01/14 14:29:54;;;;;;;37.90;17.77;;;;;;;;;;4935538;29;20035;-78
2022/01/14 14:32:25;;;;;;;43.70;18.30;;;;;;;;;;4953013;29;20031;-77
2022/01/14 14:34:51;;;;;;;44.97;19.58;;;;;;;;;;4941659;29;20046;-77
2022/01/14 14:37:17;;;;;;;49.13;20.95;;;;;;;;;;4934193;29;20042;-77
2022/01/14 14:39:43;;;;;;;43.38;19.83;;;;;;;;;;4933273;29;20071;-78
2022/01/14 14:42:10;;;;;;;69.32;22.38;;;;;;;;;;4936558;29;20059;-77
2022/01/14 14:44:36;;;;;;;113.85;20.77;;;;;;;;;;4933906;29;20475;-78
2022/01/14 14:47:04;;;;;;;118.68;22.52;;;;;;;;;;4933867;29;20123;-77
2022/01/14 14:49:30;;;;;;;54.28;22.20;;;;;;;;;;4932864;29;20508;-78
2022/01/14 14:51:59;;;;;;;83.38;25.15;;;;;;;;;;4950247;29;20039;-78
2022/01/14 14:54:25;;;;;;;104.90;22.95;;;;;;;;;;4953095;29;20027;-78
2022/01/14 14:56:51;;;;;;;73.47;22.65;;;;;;;;;;4952447;29;20043;-77
2022/01/14 14:59:17;;;;;;;103.43;25.52;;;;;;;;;;4921242;28;20067;-77
2022/01/14 15:01:44;;;;;;;55.03;22.13;;;;;;;;;;4924889;29;20391;-77
2022/01/14 15:04:10;;;;;;;50.85;19.52;;;;;;;;;;4927200;29;20051;-77
2022/01/14 15:06:36;;;;;;;91.88;19.95;;;;;;;;;;4932286;29;20035;-78
2022/01/14 15:09:04;;;;;;;111.55;21.30;;;;;;;;;;4932474;29;20036;-78
2022/01/14 15:11:30;;;;;;;68.20;19.75;;;;;;;;;;4933394;29;20023;-78
2022/01/14 15:13:56;;;;;;;99.45;24.10;;;;;;;;;;4932610;29;20051;-78
2022/01/14 15:16:26;;;;;;;93.68;21.13;;;;;;;;;;4932047;29;20047;-78
2022/01/14 15:18:52;;;;;;;71.28;21.52;;;;;;;;;;4931876;29;20512;-78
2022/01/14 15:21:18;;;;;;;115.78;25.55;;;;;;;;;;4932311;29;20473;-78
2022/01/14 15:23:50;;;;;;;154.10;27.30;;;;;;;;;;4932957;29;20031;-77
2022/01/14 15:26:16;;;;;;;;;;;;;;;;;;4927691;29;20059;-78
2022/01/14 15:28:41;;;;;;;155.73;26.17;;;;;;;;;;4932477;29;19918;-78
2022/01/14 15:31:07;;;;;;;188.75;27.02;;;;;;;;;;4933043;29;20042;-78